sensor_id;sensor_type;location;lat;lon;timestamp;pressure;altitude;pressure_sealevel;temperature;humidity
35435;BME280;21556;55.782;37.528;2023-08-12T00:03:45;99931.53;;;24.80;100.00
35435;BME280;21556;55.782;37.528;2023-08-12T00:06:11;99916.63;;;25.40;100.00
35435;BME280;21556;55.782;37.528;2023-08-12T00:08:37;99912.09;;;24.97;100.00
35435;BME280;21556;55.782;37.528;2023-08-12T00:11:05;99916.19;;;24.60;100.00
35435;BME280;21556;55.782;37.528;2023-08-12T00:13:32;99908.94;;;24.86;100.00
35435;BME280;21556;55.782;37.528;2023-08-12T00:15:57;99910.69;;;24.87;100.00
35435;BME280;21556;55.782;37.528;2023-08-12T00:18:26;99912.09;;;25.20;100.00
35435;BME280;21556;55.782;37.528;2023-08-12T00:20:53;99918.66;;;25.13;100.00
35435;BME280;21556;55.782;37.528;2023-08-12T00:23:20;99938.94;;;24.73;100.00
35435;BME280;21556;55.782;37.528;2023-08-12T00:25:46;99932.78;;;24.46;100.00
35435;BME280;21556;55.782;37.528;2023-08-12T00:28:12;99923.56;;;24.54;100.00
35435;BME280;21556;55.782;37.528;2023-08-12T00:30:41;99924.59;;;24.74;100.00
35435;BME280;21556;55.782;37.528;2023-08-12T00:33:09;99914.69;;;24.77;100.00
35435;BME280;21556;55.782;37.528;2023-08-12T00:35:37;99918.28;;;24.76;100.00
35435;BME280;21556;55.782;37.528;2023-08-12T00:38:02;99914.69;;;24.77;100.00
35435;BME280;21556;55.782;37.528;2023-08-12T00:40:29;99908.25;;;24.81;100.00
35435;BME280;21556;55.782;37.528;2023-08-12T00:42:55;99911.03;;;25.01;100.00
35435;BME280;21556;55.782;37.528;2023-08-12T00:45:22;99911.16;;;24.74;100.00
35435;BME280;21556;55.782;37.528;2023-08-12T00:47:47;99921.19;;;24.93;100.00
35435;BME280;21556;55.782;37.528;2023-08-12T00:50:13;99914.59;;;24.78;100.00
35435;BME280;21556;55.782;37.528;2023-08-12T00:52:40;99921.53;;;24.60;100.00
35435;BME280;21556;55.782;37.528;2023-08-12T00:55:08;99917.88;;;24.86;100.00
35435;BME280;21556;55.782;37.528;2023-08-12T00:57:36;99917.50;;;25.19;100.00
35435;BME280;21556;55.782;37.528;2023-08-12T01:00:03;99916.88;;;25.12;100.00
35435;BME280;21556;55.782;37.528;2023-08-12T01:02:29;99927.50;;;25.15;100.00
35435;BME280;21556;55.782;37.528;2023-08-12T01:04:55;99933.38;;;25.25;100.00
35435;BME280;21556;55.782;37.528;2023-08-12T01:07:21;99932.84;;;25.15;100.00
35435;BME280;21556;55.782;37.528;2023-08-12T01:09:48;99928.34;;;25.16;100.00
35435;BME280;21556;55.782;37.528;2023-08-12T01:12:18;99917.78;;;25.13;100.00
35435;BME280;21556;55.782;37.528;2023-08-12T01:17:29;99898.66;;;25.20;100.00
35435;BME280;21556;55.782;37.528;2023-08-12T01:19:55;99898.63;;;24.98;100.00
35435;BME280;21556;55.782;37.528;2023-08-12T01:22:22;99903.50;;;24.87;100.00
35435;BME280;21556;55.782;37.528;2023-08-12T01:24:49;99894.91;;;25.01;100.00
35435;BME280;21556;55.782;37.528;2023-08-12T01:27:16;99912.66;;;25.29;100.00
35435;BME280;21556;55.782;37.528;2023-08-12T01:29:43;99903.09;;;25.43;100.00
35435;BME280;21556;55.782;37.528;2023-08-12T01:37:49;99936.94;;;25.26;100.00
35435;BME280;21556;55.782;37.528;2023-08-12T01:40:16;99929.78;;;25.03;100.00
35435;BME280;21556;55.782;37.528;2023-08-12T01:42:45;99933.06;;;25.11;100.00
35435;BME280;21556;55.782;37.528;2023-08-12T01:45:13;99923.63;;;25.23;100.00
35435;BME280;21556;55.782;37.528;2023-08-12T01:47:42;99916.41;;;25.25;100.00
35435;BME280;21556;55.782;37.528;2023-08-12T01:50:10;99908.66;;;25.17;100.00
35435;BME280;21556;55.782;37.528;2023-08-12T01:52:38;99901.94;;;24.82;100.00
35435;BME280;21556;55.782;37.528;2023-08-12T01:55:05;99909.06;;;24.83;100.00
35435;BME280;21556;55.782;37.528;2023-08-12T01:57:31;99902.41;;;24.93;100.00
35435;BME280;21556;55.782;37.528;2023-08-12T01:59:57;99897.53;;;24.81;100.00
35435;BME280;21556;55.782;37.528;2023-08-12T02:02:23;99889.59;;;24.78;100.00
35435;BME280;21556;55.782;37.528;2023-08-12T02:04:50;99871.22;;;24.43;100.00
35435;BME280;21556;55.782;37.528;2023-08-12T02:07:16;99878.28;;;24.69;100.00
35435;BME280;21556;55.782;37.528;2023-08-12T02:09:42;99866.53;;;24.72;100.00
35435;BME280;21556;55.782;37.528;2023-08-12T02:12:08;99864.16;;;24.88;100.00
35435;BME280;21556;55.782;37.528;2023-08-12T02:14:34;99858.19;;;24.33;100.00
35435;BME280;21556;55.782;37.528;2023-08-12T02:17:02;99854.31;;;24.41;100.00
35435;BME280;21556;55.782;37.528;2023-08-12T02:19:33;99855.19;;;24.42;100.00
35435;BME280;21556;55.782;37.528;2023-08-12T02:22:00;99854.50;;;24.60;100.00
35435;BME280;21556;55.782;37.528;2023-08-12T02:24:27;99848.84;;;24.44;100.00
35435;BME280;21556;55.782;37.528;2023-08-12T02:26:57;99849.31;;;24.56;100.00
35435;BME280;21556;55.782;37.528;2023-08-12T02:29:23;99867.97;;;24.59;100.00
35435;BME280;21556;55.782;37.528;2023-08-12T02:31:49;99872.31;;;24.61;100.00
35435;BME280;21556;55.782;37.528;2023-08-12T02:34:15;99865.75;;;24.70;100.00
35435;BME280;21556;55.782;37.528;2023-08-12T02:36:41;99877.69;;;24.36;100.00
35435;BME280;21556;55.782;37.528;2023-08-12T02:39:06;99873.44;;;24.56;100.00
35435;BME280;21556;55.782;37.528;2023-08-12T02:41:32;99864.75;;;24.00;100.00
35435;BME280;21556;55.782;37.528;2023-08-12T02:44:03;99886.59;;;24.62;100.00
35435;BME280;21556;55.782;37.528;2023-08-12T02:46:30;99877.78;;;24.10;100.00
35435;BME280;21556;55.782;37.528;2023-08-12T02:48:56;99886.88;;;24.31;100.00
35435;BME280;21556;55.782;37.528;2023-08-12T02:51:22;99887.91;;;24.26;100.00
35435;BME280;21556;55.782;37.528;2023-08-12T02:53:50;99887.94;;;24.25;100.00
35435;BME280;21556;55.782;37.528;2023-08-12T02:56:16;99886.31;;;23.96;100.00
35435;BME280;21556;55.782;37.528;2023-08-12T02:58:42;99879.03;;;24.24;100.00
35435;BME280;21556;55.782;37.528;2023-08-12T03:01:10;99887.03;;;24.51;100.00
35435;BME280;21556;55.782;37.528;2023-08-12T03:03:37;99888.06;;;24.22;100.00
35435;BME280;21556;55.782;37.528;2023-08-12T03:06:04;99897.69;;;24.76;100.00
35435;BME280;21556;55.782;37.528;2023-08-12T03:08:32;99884.28;;;24.53;100.00
35435;BME280;21556;55.782;37.528;2023-08-12T03:11:00;99888.38;;;24.63;100.00
35435;BME280;21556;55.782;37.528;2023-08-12T03:13:27;99889.97;;;24.90;100.00
35435;BME280;21556;55.782;37.528;2023-08-12T03:15:55;99893.38;;;24.72;100.00
35435;BME280;21556;55.782;37.528;2023-08-12T03:18:21;99878.56;;;24.62;100.00
35435;BME280;21556;55.782;37.528;2023-08-12T03:20:47;99878.75;;;24.57;100.00
35435;BME280;21556;55.782;37.528;2023-08-12T03:23:14;99869.34;;;24.69;100.00
35435;BME280;21556;55.782;37.528;2023-08-12T03:25:41;99857.72;;;23.96;100.00
35435;BME280;21556;55.782;37.528;2023-08-12T03:28:07;99850.03;;;23.87;100.00
35435;BME280;21556;55.782;37.528;2023-08-12T03:30:33;99854.81;;;24.02;100.00
35435;BME280;21556;55.782;37.528;2023-08-12T03:32:59;99845.34;;;24.17;100.00
35435;BME280;21556;55.782;37.528;2023-08-12T03:35:29;99831.53;;;24.05;100.00
35435;BME280;21556;55.782;37.528;2023-08-12T03:37:55;99816.13;;;24.11;100.00
35435;BME280;21556;55.782;37.528;2023-08-12T03:40:22;99815.97;;;24.63;100.00
35435;BME280;21556;55.782;37.528;2023-08-12T03:42:48;99814.72;;;24.71;100.00
35435;BME280;21556;55.782;37.528;2023-08-12T03:45:17;99809.38;;;24.48;100.00
35435;BME280;21556;55.782;37.528;2023-08-12T03:47:42;99824.97;;;24.13;100.00
35435;BME280;21556;55.782;37.528;2023-08-12T03:50:09;99834.81;;;24.13;100.00
35435;BME280;21556;55.782;37.528;2023-08-12T03:52:39;99839.28;;;24.12;100.00
35435;BME280;21556;55.782;37.528;2023-08-12T03:55:05;99841.03;;;24.13;100.00
35435;BME280;21556;55.782;37.528;2023-08-12T03:57:32;99840.66;;;23.99;100.00
35435;BME280;21556;55.782;37.528;2023-08-12T04:00:01;99837.75;;;24.54;100.00
35435;BME280;21556;55.782;37.528;2023-08-12T04:02:41;99836.97;;;24.52;100.00
35435;BME280;21556;55.782;37.528;2023-08-12T04:05:08;99847.41;;;24.34;100.00
35435;BME280;21556;55.782;37.528;2023-08-12T04:07:35;99843.75;;;24.84;100.00
35435;BME280;21556;55.782;37.528;2023-08-12T04:10:01;99853.25;;;24.69;100.00
35435;BME280;21556;55.782;37.528;2023-08-12T04:12:29;99854.66;;;24.79;100.00
35435;BME280;21556;55.782;37.528;2023-08-12T04:14:58;99860.34;;;24.48;100.00
35435;BME280;21556;55.782;37.528;2023-08-12T04:17:25;99857.31;;;24.79;100.00
35435;BME280;21556;55.782;37.528;2023-08-12T04:19:51;99871.53;;;24.59;100.00
35435;BME280;21556;55.782;37.528;2023-08-12T04:22:18;99875.25;;;24.55;100.00
35435;BME280;21556;55.782;37.528;2023-08-12T04:24:44;99876.47;;;24.70;100.00
35435;BME280;21556;55.782;37.528;2023-08-12T04:27:11;99884.53;;;24.70;100.00
35435;BME280;21556;55.782;37.528;2023-08-12T04:29:37;99870.81;;;24.78;100.00
35435;BME280;21556;55.782;37.528;2023-08-12T04:32:03;99861.69;;;24.35;100.00
35435;BME280;21556;55.782;37.528;2023-08-12T04:34:30;99869.41;;;24.67;100.00
35435;BME280;21556;55.782;37.528;2023-08-12T04:36:57;99860.13;;;24.76;100.00
35435;BME280;21556;55.782;37.528;2023-08-12T04:39:23;99856.47;;;24.79;100.00
35435;BME280;21556;55.782;37.528;2023-08-12T04:41:49;99844.34;;;24.45;100.00
35435;BME280;21556;55.782;37.528;2023-08-12T04:44:17;99849.34;;;24.54;100.00
35435;BME280;21556;55.782;37.528;2023-08-12T04:46:43;99866.09;;;24.84;100.00
35435;BME280;21556;55.782;37.528;2023-08-12T04:49:10;99872.78;;;24.72;100.00
35435;BME280;21556;55.782;37.528;2023-08-12T04:51:36;99882.03;;;24.87;100.00
35435;BME280;21556;55.782;37.528;2023-08-12T04:54:02;99879.13;;;24.93;100.00
35435;BME280;21556;55.782;37.528;2023-08-12T04:56:31;99877.88;;;24.80;100.00
35435;BME280;21556;55.782;37.528;2023-08-12T04:58:58;99877.38;;;24.69;100.00
35435;BME280;21556;55.782;37.528;2023-08-12T05:01:24;99877.16;;;24.75;100.00
35435;BME280;21556;55.782;37.528;2023-08-12T05:03:51;99887.38;;;24.65;100.00
35435;BME280;21556;55.782;37.528;2023-08-12T05:06:18;99897.91;;;24.93;100.00
35435;BME280;21556;55.782;37.528;2023-08-12T05:08:45;99905.75;;;24.02;100.00
35435;BME280;21556;55.782;37.528;2023-08-12T05:11:11;99907.78;;;24.46;100.00
35435;BME280;21556;55.782;37.528;2023-08-12T05:13:36;99896.38;;;24.14;100.00
35435;BME280;21556;55.782;37.528;2023-08-12T05:16:03;99894.97;;;24.04;100.00
35435;BME280;21556;55.782;37.528;2023-08-12T05:18:29;99888.78;;;24.02;100.00
35435;BME280;21556;55.782;37.528;2023-08-12T05:20:55;99879.28;;;24.18;100.00
35435;BME280;21556;55.782;37.528;2023-08-12T05:23:23;99884.06;;;24.34;100.00
35435;BME280;21556;55.782;37.528;2023-08-12T05:25:49;99869.28;;;23.98;100.00
35435;BME280;21556;55.782;37.528;2023-08-12T05:28:14;99856.34;;;24.10;100.00
35435;BME280;21556;55.782;37.528;2023-08-12T05:30:41;99848.44;;;24.55;100.00
35435;BME280;21556;55.782;37.528;2023-08-12T05:33:07;99861.44;;;23.92;100.00
35435;BME280;21556;55.782;37.528;2023-08-12T05:35:36;99867.72;;;23.91;100.00
35435;BME280;21556;55.782;37.528;2023-08-12T05:38:06;99879.00;;;24.01;100.00
35435;BME280;21556;55.782;37.528;2023-08-12T05:40:32;99855.81;;;24.00;100.00
35435;BME280;21556;55.782;37.528;2023-08-12T05:42:58;99836.81;;;23.83;100.00
35435;BME280;21556;55.782;37.528;2023-08-12T05:45:24;99815.91;;;23.92;100.00
35435;BME280;21556;55.782;37.528;2023-08-12T05:47:50;99820.72;;;23.83;100.00
35435;BME280;21556;55.782;37.528;2023-08-12T05:50:19;99800.81;;;23.90;100.00
35435;BME280;21556;55.782;37.528;2023-08-12T05:52:46;99791.34;;;24.28;100.00
35435;BME280;21556;55.782;37.528;2023-08-12T05:55:12;99774.00;;;24.15;100.00
35435;BME280;21556;55.782;37.528;2023-08-12T05:57:38;99768.59;;;24.38;100.00
35435;BME280;21556;55.782;37.528;2023-08-12T06:00:04;99766.13;;;24.34;100.00
35435;BME280;21556;55.782;37.528;2023-08-12T06:02:51;99762.00;;;24.70;100.00
35435;BME280;21556;55.782;37.528;2023-08-12T06:05:18;99776.94;;;24.31;100.00
35435;BME280;21556;55.782;37.528;2023-08-12T06:07:44;99772.00;;;24.43;100.00
35435;BME280;21556;55.782;37.528;2023-08-12T06:10:10;99779.31;;;24.62;100.00
35435;BME280;21556;55.782;37.528;2023-08-12T06:12:37;99769.28;;;24.45;100.00
35435;BME280;21556;55.782;37.528;2023-08-12T06:15:09;99765.13;;;24.13;100.00
35435;BME280;21556;55.782;37.528;2023-08-12T06:17:50;99753.41;;;24.62;100.00
35435;BME280;21556;55.782;37.528;2023-08-12T06:20:16;99740.16;;;24.80;100.00
35435;BME280;21556;55.782;37.528;2023-08-12T06:22:43;99731.78;;;24.43;100.00
35435;BME280;21556;55.782;37.528;2023-08-12T06:25:09;99721.53;;;24.77;100.00
35435;BME280;21556;55.782;37.528;2023-08-12T06:27:38;99733.44;;;24.69;100.00
35435;BME280;21556;55.782;37.528;2023-08-12T06:30:05;99733.16;;;24.76;100.00
35435;BME280;21556;55.782;37.528;2023-08-12T06:32:38;99738.28;;;24.82;100.00
35435;BME280;21556;55.782;37.528;2023-08-12T06:35:08;99738.06;;;25.30;100.00
35435;BME280;21556;55.782;37.528;2023-08-12T06:37:36;99737.31;;;25.05;100.00
35435;BME280;21556;55.782;37.528;2023-08-12T06:40:02;99738.94;;;25.09;100.00
35435;BME280;21556;55.782;37.528;2023-08-12T06:42:33;99752.00;;;25.18;100.00
35435;BME280;21556;55.782;37.528;2023-08-12T06:45:03;99748.81;;;25.08;100.00
35435;BME280;21556;55.782;37.528;2023-08-12T06:47:36;99752.25;;;24.90;100.00
35435;BME280;21556;55.782;37.528;2023-08-12T06:50:01;99746.72;;;25.16;100.00
35435;BME280;21556;55.782;37.528;2023-08-12T06:52:29;99755.38;;;25.01;100.00
35435;BME280;21556;55.782;37.528;2023-08-12T06:54:55;99764.81;;;24.89;100.00
35435;BME280;21556;55.782;37.528;2023-08-12T06:57:25;99753.13;;;25.12;100.00
35435;BME280;21556;55.782;37.528;2023-08-12T06:59:56;99761.81;;;25.19;100.00
35435;BME280;21556;55.782;37.528;2023-08-12T07:02:23;99754.13;;;25.10;100.00
35435;BME280;21556;55.782;37.528;2023-08-12T07:04:49;99766.06;;;25.25;100.00
35435;BME280;21556;55.782;37.528;2023-08-12T07:07:15;99773.16;;;24.82;100.00
35435;BME280;21556;55.782;37.528;2023-08-12T07:09:43;99762.66;;;24.97;100.00
35435;BME280;21556;55.782;37.528;2023-08-12T07:12:08;99768.19;;;25.16;100.00
35435;BME280;21556;55.782;37.528;2023-08-12T07:14:35;99766.19;;;24.78;100.00
35435;BME280;21556;55.782;37.528;2023-08-12T07:17:04;99770.59;;;25.01;100.00
35435;BME280;21556;55.782;37.528;2023-08-12T07:19:34;99768.34;;;24.90;100.00
35435;BME280;21556;55.782;37.528;2023-08-12T07:22:03;99768.84;;;25.00;100.00
35435;BME280;21556;55.782;37.528;2023-08-12T07:24:29;99755.81;;;24.90;100.00
35435;BME280;21556;55.782;37.528;2023-08-12T07:26:55;99756.22;;;25.24;100.00
35435;BME280;21556;55.782;37.528;2023-08-12T07:29:26;99748.72;;;25.11;100.00
35435;BME280;21556;55.782;37.528;2023-08-12T07:31:52;99750.53;;;25.11;100.00
35435;BME280;21556;55.782;37.528;2023-08-12T07:34:21;99748.66;;;25.13;100.00
35435;BME280;21556;55.782;37.528;2023-08-12T07:36:47;99738.78;;;25.13;100.00
35435;BME280;21556;55.782;37.528;2023-08-12T07:39:15;99729.94;;;25.32;100.00
35435;BME280;21556;55.782;37.528;2023-08-12T07:44:35;99743.63;;;25.04;100.00
35435;BME280;21556;55.782;37.528;2023-08-12T07:47:01;99742.53;;;25.09;100.00
35435;BME280;21556;55.782;37.528;2023-08-12T07:49:27;99755.03;;;25.31;100.00
35435;BME280;21556;55.782;37.528;2023-08-12T07:51:52;99757.41;;;25.38;100.00
35435;BME280;21556;55.782;37.528;2023-08-12T07:54:21;99763.03;;;25.32;100.00
35435;BME280;21556;55.782;37.528;2023-08-12T07:56:54;99772.00;;;25.11;100.00
35435;BME280;21556;55.782;37.528;2023-08-12T07:59:20;99763.53;;;25.42;100.00
35435;BME280;21556;55.782;37.528;2023-08-12T08:01:47;99767.03;;;25.22;100.00
35435;BME280;21556;55.782;37.528;2023-08-12T08:04:15;99787.13;;;25.34;100.00
35435;BME280;21556;55.782;37.528;2023-08-12T08:06:41;99808.31;;;25.19;100.00
35435;BME280;21556;55.782;37.528;2023-08-12T08:09:08;99810.66;;;25.49;100.00
35435;BME280;21556;55.782;37.528;2023-08-12T08:11:36;99820.63;;;25.25;100.00
35435;BME280;21556;55.782;37.528;2023-08-12T08:14:04;99811.47;;;25.07;100.00
35435;BME280;21556;55.782;37.528;2023-08-12T08:16:33;99802.00;;;24.98;100.00
35435;BME280;21556;55.782;37.528;2023-08-12T08:19:05;99798.16;;;24.60;100.00
35435;BME280;21556;55.782;37.528;2023-08-12T08:21:36;99791.06;;;24.59;100.00
35435;BME280;21556;55.782;37.528;2023-08-12T08:24:06;99774.34;;;24.53;100.00
35435;BME280;21556;55.782;37.528;2023-08-12T08:26:35;99758.06;;;24.57;100.00
35435;BME280;21556;55.782;37.528;2023-08-12T08:29:00;99768.44;;;24.43;100.00
35435;BME280;21556;55.782;37.528;2023-08-12T08:31:26;99763.09;;;24.43;100.00
35435;BME280;21556;55.782;37.528;2023-08-12T08:33:52;99769.59;;;24.36;100.00
35435;BME280;21556;55.782;37.528;2023-08-12T08:36:21;99784.81;;;24.35;100.00
35435;BME280;21556;55.782;37.528;2023-08-12T08:38:51;99783.31;;;24.52;100.00
35435;BME280;21556;55.782;37.528;2023-08-12T08:41:17;99763.75;;;24.71;100.00
35435;BME280;21556;55.782;37.528;2023-08-12T08:43:43;99759.50;;;24.44;100.00
35435;BME280;21556;55.782;37.528;2023-08-12T08:46:12;99770.78;;;24.52;100.00
35435;BME280;21556;55.782;37.528;2023-08-12T08:48:41;99785.28;;;25.14;100.00
35435;BME280;21556;55.782;37.528;2023-08-12T08:51:08;99796.50;;;25.45;100.00
35435;BME280;21556;55.782;37.528;2023-08-12T08:56:44;99817.72;;;24.86;100.00
35435;BME280;21556;55.782;37.528;2023-08-12T08:59:10;99814.28;;;24.82;100.00
35435;BME280;21556;55.782;37.528;2023-08-12T09:01:35;99805.97;;;24.66;100.00
35435;BME280;21556;55.782;37.528;2023-08-12T09:04:02;99797.66;;;24.72;100.00
35435;BME280;21556;55.782;37.528;2023-08-12T09:06:31;99796.91;;;24.69;100.00
35435;BME280;21556;55.782;37.528;2023-08-12T09:08:58;99797.38;;;25.02;100.00
35435;BME280;21556;55.782;37.528;2023-08-12T09:11:27;99806.09;;;24.63;100.00
35435;BME280;21556;55.782;37.528;2023-08-12T09:13:54;99799.91;;;25.05;100.00
35435;BME280;21556;55.782;37.528;2023-08-12T09:16:19;99788.44;;;25.02;100.00
35435;BME280;21556;55.782;37.528;2023-08-12T09:18:46;99780.81;;;24.91;100.00
35435;BME280;21556;55.782;37.528;2023-08-12T09:21:15;99780.22;;;24.84;100.00
35435;BME280;21556;55.782;37.528;2023-08-12T09:23:43;99786.91;;;25.18;100.00
35435;BME280;21556;55.782;37.528;2023-08-12T09:26:16;99792.03;;;24.80;100.00
35435;BME280;21556;55.782;37.528;2023-08-12T09:28:51;99792.25;;;24.96;100.00
35435;BME280;21556;55.782;37.528;2023-08-12T09:31:24;99809.66;;;25.08;100.00
35435;BME280;21556;55.782;37.528;2023-08-12T09:34:01;99814.06;;;25.10;100.00
35435;BME280;21556;55.782;37.528;2023-08-12T09:36:29;99828.66;;;25.03;100.00
35435;BME280;21556;55.782;37.528;2023-08-12T09:38:58;99843.63;;;25.09;100.00
35435;BME280;21556;55.782;37.528;2023-08-12T09:41:27;99857.72;;;24.70;100.00
35435;BME280;21556;55.782;37.528;2023-08-12T09:43:55;99836.09;;;24.51;100.00
35435;BME280;21556;55.782;37.528;2023-08-12T09:46:22;99836.16;;;24.24;100.00
35435;BME280;21556;55.782;37.528;2023-08-12T09:48:50;99820.03;;;24.49;100.00
35435;BME280;21556;55.782;37.528;2023-08-12T09:51:21;99825.84;;;23.89;100.00
35435;BME280;21556;55.782;37.528;2023-08-12T09:53:49;99817.91;;;24.34;100.00
35435;BME280;21556;55.782;37.528;2023-08-12T09:56:17;99806.56;;;24.04;100.00
35435;BME280;21556;55.782;37.528;2023-08-12T09:58:43;99799.28;;;24.31;100.00
35435;BME280;21556;55.782;37.528;2023-08-12T10:01:12;99807.69;;;24.45;100.00
35435;BME280;21556;55.782;37.528;2023-08-12T10:03:39;99813.00;;;24.69;100.00
35435;BME280;21556;55.782;37.528;2023-08-12T10:06:07;99800.72;;;24.63;100.00
35435;BME280;21556;55.782;37.528;2023-08-12T10:08:36;99787.97;;;24.46;100.00
35435;BME280;21556;55.782;37.528;2023-08-12T10:11:03;99790.78;;;24.43;100.00
35435;BME280;21556;55.782;37.528;2023-08-12T10:13:32;99785.47;;;24.18;100.00
35435;BME280;21556;55.782;37.528;2023-08-12T10:16:03;99777.69;;;24.11;100.00
35435;BME280;21556;55.782;37.528;2023-08-12T10:18:30;99796.19;;;24.18;100.00
35435;BME280;21556;55.782;37.528;2023-08-12T10:20:57;99799.81;;;23.92;100.00
35435;BME280;21556;55.782;37.528;2023-08-12T10:23:25;99798.16;;;24.13;100.00
35435;BME280;21556;55.782;37.528;2023-08-12T10:25:53;99789.16;;;24.39;100.00
35435;BME280;21556;55.782;37.528;2023-08-12T10:28:21;99793.41;;;24.45;100.00
35435;BME280;21556;55.782;37.528;2023-08-12T10:30:49;99794.91;;;24.52;100.00
35435;BME280;21556;55.782;37.528;2023-08-12T10:33:18;99800.72;;;24.16;100.00
35435;BME280;21556;55.782;37.528;2023-08-12T10:35:45;99812.78;;;24.28;100.00
35435;BME280;21556;55.782;37.528;2023-08-12T10:38:13;99814.78;;;24.46;100.00
35435;BME280;21556;55.782;37.528;2023-08-12T10:40:48;99790.06;;;24.38;100.00
35435;BME280;21556;55.782;37.528;2023-08-12T10:43:14;99789.03;;;24.19;100.00
35435;BME280;21556;55.782;37.528;2023-08-12T10:45:47;99790.91;;;24.40;100.00
35435;BME280;21556;55.782;37.528;2023-08-12T10:48:17;99794.66;;;24.58;100.00
35435;BME280;21556;55.782;37.528;2023-08-12T10:50:51;99782.94;;;24.14;100.00
35435;BME280;21556;55.782;37.528;2023-08-12T10:53:25;99786.06;;;24.26;100.00
35435;BME280;21556;55.782;37.528;2023-08-12T10:55:57;99787.50;;;24.35;100.00
35435;BME280;21556;55.782;37.528;2023-08-12T10:58:34;99777.53;;;24.15;100.00
35435;BME280;21556;55.782;37.528;2023-08-12T11:01:03;99770.59;;;23.86;100.00
35435;BME280;21556;55.782;37.528;2023-08-12T11:03:36;99775.19;;;24.06;100.00
35435;BME280;21556;55.782;37.528;2023-08-12T11:06:15;99782.06;;;24.13;100.00
35435;BME280;21556;55.782;37.528;2023-08-12T11:08:47;99799.13;;;24.11;100.00
35435;BME280;21556;55.782;37.528;2023-08-12T11:11:26;99837.41;;;24.14;100.00
35435;BME280;21556;55.782;37.528;2023-08-12T11:13:59;99837.31;;;23.92;100.00
35435;BME280;21556;55.782;37.528;2023-08-12T11:16:38;99842.78;;;24.14;100.00
35435;BME280;21556;55.782;37.528;2023-08-12T11:19:13;99845.75;;;23.82;100.00
35435;BME280;21556;55.782;37.528;2023-08-12T11:21:40;99842.06;;;23.86;100.00
35435;BME280;21556;55.782;37.528;2023-08-12T11:24:21;99845.88;;;23.78;100.00
35435;BME280;21556;55.782;37.528;2023-08-12T11:26:50;99835.84;;;24.09;100.00
35435;BME280;21556;55.782;37.528;2023-08-12T11:29:27;99853.00;;;24.03;100.00
35435;BME280;21556;55.782;37.528;2023-08-12T11:31:57;99855.03;;;24.21;100.00
35435;BME280;21556;55.782;37.528;2023-08-12T11:34:26;99843.81;;;24.10;100.00
35435;BME280;21556;55.782;37.528;2023-08-12T11:36:55;99830.53;;;24.07;100.00
35435;BME280;21556;55.782;37.528;2023-08-12T11:39:22;99847.56;;;23.81;100.00
35435;BME280;21556;55.782;37.528;2023-08-12T11:41:48;99837.94;;;23.22;100.00
35435;BME280;21556;55.782;37.528;2023-08-12T11:44:16;99815.50;;;23.53;100.00
35435;BME280;21556;55.782;37.528;2023-08-12T11:46:44;99816.78;;;23.68;100.00
35435;BME280;21556;55.782;37.528;2023-08-12T11:49:10;99810.53;;;23.67;100.00
35435;BME280;21556;55.782;37.528;2023-08-12T11:51:42;99814.75;;;23.74;100.00
35435;BME280;21556;55.782;37.528;2023-08-12T11:54:14;99819.63;;;23.10;100.00
35435;BME280;21556;55.782;37.528;2023-08-12T11:56:46;99807.41;;;23.54;100.00
35435;BME280;21556;55.782;37.528;2023-08-12T11:59:14;99796.63;;;23.56;100.00
35435;BME280;21556;55.782;37.528;2023-08-12T12:02:02;99798.03;;;23.41;100.00
35435;BME280;21556;55.782;37.528;2023-08-12T12:04:33;99793.22;;;23.26;100.00
35435;BME280;21556;55.782;37.528;2023-08-12T12:07:16;99807.63;;;22.95;100.00
35435;BME280;21556;55.782;37.528;2023-08-12T12:09:46;99806.94;;;23.15;100.00
35435;BME280;21556;55.782;37.528;2023-08-12T12:12:13;99802.06;;;23.28;100.00
35435;BME280;21556;55.782;37.528;2023-08-12T12:14:55;99785.69;;;23.37;100.00
35435;BME280;21556;55.782;37.528;2023-08-12T12:24:38;99751.84;;;22.25;100.00
35435;BME280;21556;55.782;37.528;2023-08-12T12:27:13;99750.69;;;22.03;100.00
35435;BME280;21556;55.782;37.528;2023-08-12T12:32:18;99751.19;;;22.17;100.00
35435;BME280;21556;55.782;37.528;2023-08-12T12:34:51;99729.88;;;22.44;100.00
35435;BME280;21556;55.782;37.528;2023-08-12T12:37:28;99715.28;;;22.26;100.00
35435;BME280;21556;55.782;37.528;2023-08-12T12:40:07;99710.47;;;21.78;100.00
35435;BME280;21556;55.782;37.528;2023-08-12T12:42:42;99693.34;;;21.85;100.00
35435;BME280;21556;55.782;37.528;2023-08-12T12:45:14;99685.81;;;21.70;100.00
35435;BME280;21556;55.782;37.528;2023-08-12T12:47:41;99680.94;;;21.53;100.00
35435;BME280;21556;55.782;37.528;2023-08-12T12:50:09;99708.97;;;21.99;100.00
35435;BME280;21556;55.782;37.528;2023-08-12T12:52:41;99734.84;;;21.97;100.00
35435;BME280;21556;55.782;37.528;2023-08-12T12:55:07;99770.31;;;21.71;100.00
35435;BME280;21556;55.782;37.528;2023-08-12T12:57:33;99780.13;;;22.01;100.00
35435;BME280;21556;55.782;37.528;2023-08-12T13:00:02;99779.91;;;21.78;100.00
35435;BME280;21556;55.782;37.528;2023-08-12T13:02:29;99771.84;;;22.10;100.00
35435;BME280;21556;55.782;37.528;2023-08-12T13:04:55;99762.13;;;22.08;100.00
35435;BME280;21556;55.782;37.528;2023-08-12T13:07:24;99755.81;;;22.10;100.00
35435;BME280;21556;55.782;37.528;2023-08-12T13:09:51;99747.75;;;22.12;100.00
35435;BME280;21556;55.782;37.528;2023-08-12T13:12:17;99744.56;;;22.30;100.00